createdAt,value
2023-04-16T00:01:46.430Z,8.95
2023-04-16T00:06:48.203Z,8.93
2023-04-16T00:11:49.980Z,8.88
2023-04-16T00:16:51.751Z,8.84
2023-04-16T00:21:53.692Z,8.79
2023-04-16T00:26:56.033Z,8.73
2023-04-16T00:31:57.894Z,8.68
2023-04-16T00:36:59.775Z,8.60
2023-04-16T00:42:01.943Z,8.56
2023-04-16T00:47:04.548Z,8.53
2023-04-16T00:52:06.750Z,8.49
2023-04-16T00:57:09.197Z,8.44
2023-04-16T01:02:13.002Z,8.40
2023-04-16T01:07:15.088Z,8.35
2023-04-16T01:12:16.918Z,8.32
2023-04-16T01:17:18.705Z,8.27
2023-04-16T01:22:20.924Z,8.24
2023-04-16T01:27:23.350Z,8.22
2023-04-16T01:32:25.409Z,8.19
2023-04-16T01:37:27.425Z,8.15
2023-04-16T01:42:29.290Z,8.14
2023-04-16T01:47:31.329Z,8.12
2023-04-16T01:52:33.206Z,8.07
2023-04-16T01:57:35.080Z,8.02
2023-04-16T02:02:38.503Z,7.96
2023-04-16T02:07:40.509Z,7.91
2023-04-16T02:12:42.285Z,7.87
2023-04-16T02:17:44.304Z,7.84
2023-04-16T02:22:49.369Z,7.80
2023-04-16T02:27:55.039Z,7.76
2023-04-16T02:33:05.647Z,7.72
2023-04-16T02:38:08.845Z,7.72
2023-04-16T02:43:11.167Z,7.70
2023-04-16T02:48:13.605Z,7.70
2023-04-16T02:53:15.408Z,7.69
2023-04-16T02:58:17.265Z,7.66
2023-04-16T03:03:19.147Z,7.64
2023-04-16T03:08:21.159Z,7.64
2023-04-16T03:13:23.108Z,7.61
2023-04-16T03:18:25.007Z,7.55
2023-04-16T03:23:26.857Z,7.47
2023-04-16T03:28:28.659Z,7.43
2023-04-16T03:33:30.395Z,7.35
2023-04-16T03:38:32.156Z,7.29
2023-04-16T03:43:34.749Z,7.27
2023-04-16T03:48:36.964Z,7.21
2023-04-16T03:53:39.005Z,7.18
2023-04-16T03:58:41.107Z,7.13
2023-04-16T04:03:44.067Z,7.13
2023-04-16T04:08:47.793Z,7.10
2023-04-16T04:13:50.302Z,7.10
2023-04-16T04:18:52.081Z,7.11
2023-04-16T04:23:56.038Z,7.13
2023-04-16T04:28:58.703Z,7.17
2023-04-16T04:34:00.730Z,7.21
2023-04-16T04:39:03.752Z,7.17
2023-04-16T04:44:05.823Z,7.17
2023-04-16T04:49:08.162Z,7.18
2023-04-16T04:54:10.368Z,7.24
2023-04-16T04:59:12.776Z,7.29
2023-04-16T05:04:15.880Z,7.35
2023-04-16T05:09:17.761Z,7.45
2023-04-16T05:14:19.669Z,7.56
2023-04-16T05:19:21.810Z,7.67
2023-04-16T05:24:23.622Z,7.79
2023-04-16T05:29:26.260Z,7.89
2023-04-16T05:34:28.013Z,7.96
2023-04-16T05:39:29.745Z,8.00
2023-04-16T05:44:31.503Z,8.02
2023-04-16T05:49:33.307Z,8.05
2023-04-16T05:54:35.445Z,8.10
2023-04-16T05:59:37.276Z,8.17
2023-04-16T06:04:39.081Z,8.26
2023-04-16T06:09:41.120Z,8.35
2023-04-16T06:14:42.903Z,8.46
2023-04-16T06:19:44.752Z,8.55
2023-04-16T06:24:46.626Z,8.65
2023-04-16T06:29:48.619Z,8.73
2023-04-16T06:34:50.450Z,8.80
2023-04-16T06:39:52.246Z,8.90
2023-04-16T06:44:54.053Z,9.06
2023-04-16T06:49:55.789Z,9.22
2023-04-16T06:54:57.539Z,9.39
2023-04-16T06:59:59.299Z,9.51
2023-04-16T07:05:01.152Z,9.61
2023-04-16T07:10:03.494Z,9.72
2023-04-16T07:15:06.269Z,9.87
2023-04-16T07:20:08.953Z,9.99
2023-04-16T07:25:11.050Z,10.09
2023-04-16T07:30:12.955Z,10.28
2023-04-16T07:35:14.809Z,10.50
2023-04-16T07:40:16.639Z,10.61
2023-04-16T07:45:19.774Z,10.66
2023-04-16T07:50:21.583Z,10.69
2023-04-16T07:55:23.393Z,10.76
2023-04-16T08:00:25.218Z,10.88
2023-04-16T08:05:27.765Z,11.08
2023-04-16T08:10:29.856Z,11.25
2023-04-16T08:15:31.866Z,11.45
2023-04-16T08:20:33.783Z,11.57
2023-04-16T08:25:35.820Z,11.78
2023-04-16T08:30:37.739Z,11.91
2023-04-16T08:35:39.874Z,12.00
2023-04-16T08:40:42.090Z,12.06
2023-04-16T08:45:44.231Z,12.04
2023-04-16T08:50:48.339Z,12.02
2023-04-16T08:55:51.966Z,12.03
2023-04-16T09:00:55.805Z,12.07
2023-04-16T09:05:59.303Z,12.12
2023-04-16T09:11:01.734Z,12.14
2023-04-16T09:16:04.154Z,12.23
2023-04-16T09:21:08.109Z,12.29
2023-04-16T09:26:10.090Z,12.37
2023-04-16T09:31:16.646Z,12.48
2023-04-16T09:36:23.159Z,12.56
2023-04-16T09:41:28.612Z,12.69
2023-04-16T09:46:32.326Z,12.70
2023-04-16T09:51:37.848Z,12.64
2023-04-16T09:56:42.409Z,12.68
2023-04-16T10:01:46.860Z,12.71
2023-04-16T10:07:07.629Z,12.70
2023-04-16T10:12:10.427Z,12.69
2023-04-16T10:17:12.382Z,12.70
2023-04-16T10:22:14.317Z,12.69
2023-04-16T10:27:17.288Z,12.73
2023-04-16T10:32:22.014Z,12.80
2023-04-16T10:37:33.256Z,12.82
2023-04-16T10:42:35.197Z,12.80
2023-04-16T10:47:40.832Z,12.83
2023-04-16T10:52:42.667Z,12.90
2023-04-16T10:57:49.477Z,12.97
2023-04-16T11:02:55.042Z,13.08
2023-04-16T11:08:14.550Z,13.15
2023-04-16T11:13:18.708Z,13.19
2023-04-16T11:18:20.687Z,13.22
2023-04-16T11:23:22.615Z,13.18
2023-04-16T11:28:35.951Z,13.21
2023-04-16T11:33:38.308Z,13.27
2023-04-16T11:38:41.833Z,13.38
2023-04-16T11:43:43.701Z,13.40
2023-04-16T11:48:51.181Z,13.40
2023-04-16T11:53:54.379Z,13.45
2023-04-16T11:59:17.090Z,13.57
2023-04-16T12:04:21.578Z,13.64
2023-04-16T12:09:27.615Z,13.70
2023-04-16T12:14:30.336Z,13.73
2023-04-16T12:19:32.367Z,13.72
2023-04-16T12:24:37.044Z,13.70
2023-04-16T12:29:38.899Z,13.71
2023-04-16T12:34:51.675Z,13.75
2023-04-16T12:39:54.432Z,13.86
2023-04-16T12:44:56.439Z,13.91
2023-04-16T12:49:59.045Z,13.94
2023-04-16T12:55:02.271Z,14.00
2023-04-16T13:00:06.496Z,14.08
2023-04-16T13:05:09.090Z,14.10
2023-04-16T13:10:11.099Z,14.09
2023-04-16T13:15:17.157Z,14.03
2023-04-16T13:20:19.016Z,13.98
2023-04-16T13:25:20.922Z,14.03
2023-04-16T13:30:22.764Z,14.07
2023-04-16T13:35:24.767Z,14.08
2023-04-16T13:40:26.639Z,14.06
2023-04-16T13:45:28.824Z,14.07
2023-04-16T13:50:31.061Z,14.09
2023-04-16T13:55:33.008Z,14.07
2023-04-16T14:00:34.955Z,14.11
2023-04-16T14:05:37.003Z,14.12
2023-04-16T14:10:38.870Z,14.10
2023-04-16T14:15:40.717Z,14.09
2023-04-16T14:20:42.476Z,14.06
2023-04-16T14:25:44.504Z,14.01
2023-04-16T14:30:46.477Z,13.92
2023-04-16T14:35:50.387Z,13.91
2023-04-16T14:40:52.389Z,13.88
2023-04-16T14:45:54.916Z,13.80
2023-04-16T14:50:56.849Z,13.74
2023-04-16T14:55:59.128Z,13.66
2023-04-16T15:01:01.105Z,13.64
2023-04-16T15:06:03.156Z,13.67
2023-04-16T15:11:05.196Z,13.65
2023-04-16T15:16:07.049Z,13.67
2023-04-16T15:21:10.519Z,13.70
2023-04-16T15:26:13.856Z,13.90
2023-04-16T15:31:15.928Z,14.10
2023-04-16T15:36:18.167Z,14.10
2023-04-16T15:41:20.105Z,14.03
2023-04-16T15:46:22.117Z,13.99
2023-04-16T15:51:24.161Z,13.94
2023-04-16T15:56:26.594Z,13.84
2023-04-16T16:01:28.471Z,13.67
2023-04-16T16:06:31.880Z,13.57
2023-04-16T16:11:34.062Z,13.45
2023-04-16T16:16:36.390Z,13.32
2023-04-16T16:21:38.727Z,13.25
2023-04-16T16:26:40.655Z,13.22
2023-04-16T16:31:42.770Z,13.19
2023-04-16T16:36:47.781Z,13.13
2023-04-16T16:41:52.327Z,13.08
2023-04-16T16:46:54.559Z,13.03
2023-04-16T16:51:56.332Z,12.97
2023-04-16T16:56:58.809Z,12.96
2023-04-16T17:02:00.864Z,12.91
2023-04-16T17:07:03.144Z,12.85
2023-04-16T17:12:05.694Z,12.79
2023-04-16T17:17:07.531Z,12.73
2023-04-16T17:22:10.103Z,12.67
2023-04-16T17:27:12.114Z,12.61
2023-04-16T17:32:14.028Z,12.57
2023-04-16T17:37:16.567Z,12.52
2023-04-16T17:42:18.944Z,12.47
2023-04-16T17:47:21.240Z,12.38
2023-04-16T17:52:23.482Z,12.35
2023-04-16T17:57:25.333Z,12.26
2023-04-16T18:02:27.445Z,12.24
2023-04-16T18:07:29.390Z,12.20
2023-04-16T18:12:31.338Z,12.18
2023-04-16T18:17:33.679Z,12.17
2023-04-16T18:22:35.575Z,12.15
2023-04-16T18:27:38.077Z,12.12
2023-04-16T18:37:47.700Z,12.08
2023-04-16T18:42:49.408Z,12.09
2023-04-16T18:47:51.305Z,12.12
2023-04-16T18:52:56.239Z,12.13
2023-04-16T18:57:58.147Z,12.12
2023-04-16T19:02:59.926Z,12.08
2023-04-16T19:08:05.180Z,12.02
2023-04-16T19:13:06.952Z,11.99
2023-04-16T19:18:09.049Z,11.95
2023-04-16T19:23:11.653Z,11.93
2023-04-16T19:28:13.533Z,11.89
2023-04-16T19:33:15.591Z,11.90
2023-04-16T19:38:17.476Z,11.90
2023-04-16T19:43:19.330Z,11.90
2023-04-16T19:48:21.566Z,11.87
2023-04-16T19:53:24.554Z,11.86
2023-04-16T19:58:26.523Z,11.82
2023-04-16T20:03:28.491Z,11.76
2023-04-16T20:08:30.788Z,11.72
2023-04-16T20:13:32.894Z,11.69
2023-04-16T20:18:41.712Z,11.68
2023-04-16T20:23:43.693Z,11.69
2023-04-16T20:28:45.778Z,11.69
2023-04-16T20:33:47.619Z,11.68
2023-04-16T20:38:51.507Z,11.66
2023-04-16T20:43:54.548Z,11.67
2023-04-16T20:48:56.416Z,11.64
2023-04-16T20:53:58.283Z,11.60
2023-04-16T20:59:00.054Z,11.59
2023-04-16T21:04:02.122Z,11.53
2023-04-16T21:09:06.075Z,11.48
2023-04-16T21:14:07.958Z,11.49
2023-04-16T21:19:10.056Z,11.50
2023-04-16T21:24:12.558Z,11.50
2023-04-16T21:29:14.516Z,11.52
2023-04-16T21:34:16.614Z,11.44
2023-04-16T21:39:19.870Z,11.34
2023-04-16T21:44:21.638Z,11.34
2023-04-16T21:49:23.750Z,11.31
2023-04-16T21:54:25.806Z,11.26
2023-04-16T21:59:27.533Z,11.26
2023-04-16T22:04:38.593Z,11.24
2023-04-16T22:09:40.911Z,11.24
2023-04-16T22:14:52.218Z,11.24
2023-04-16T22:20:04.953Z,11.24
2023-04-16T22:25:07.497Z,11.26
2023-04-16T22:30:13.305Z,11.28
2023-04-16T22:35:15.627Z,11.28
2023-04-16T22:40:18.468Z,11.25
2023-04-16T22:45:20.205Z,11.21
2023-04-16T22:50:23.224Z,11.14
2023-04-16T22:55:25.017Z,11.06
2023-04-16T23:00:27.417Z,11.03
2023-04-16T23:05:29.399Z,11.01
2023-04-16T23:10:31.217Z,11.03
2023-04-16T23:15:33.098Z,11.07
2023-04-16T23:20:34.981Z,11.10
2023-04-16T23:25:37.035Z,11.06
2023-04-16T23:30:38.786Z,11.02
2023-04-16T23:35:40.584Z,11.01
2023-04-16T23:40:42.336Z,10.98
2023-04-16T23:45:44.208Z,10.98
2023-04-16T23:50:46.129Z,10.98
2023-04-16T23:55:47.967Z,10.97
